Pawnee, Texas
Current Conditions -  °F | °C
As of 5:35 AM on Thursday 27 Nov 2014 (Local Time) from KBEA Reporting Station
Clear Clear  
Wind Chill:   Ceiling: Unl
Heat Index:   Visibility: 10mi
Dew Point:   Wind: 7mph
Humidity: 77%   Direction: 20°NNE
Pressure: 30.36"   Gusts: NA
Location:  28.65°N, 98°W
Report Text: KBEA 271135Z AUTO 02006KT 10SM CLR 09/05 A3036 RMK AO2 T00850046
Loading
Personal Weather Stations






























Interactive Weather Map New forecast layout! Learn more

10-Day Weather Forecast

Advertisements
Track Severe Weather on mobile